Time;durP1;ratioP1;P1;durP2;ratioP2;P2;SDS_P1;SDS_P2;PMS_P1;PMS_P2;Temp;Humidity;BMP_temperature;BMP_pressure;BME280_temperature;BME280_humidity;BME280_pressure;Samples;Min_cycle;Max_cycle;Signal;HPM_P1;HPM_P2
2022/03/03 00:00:07;;;;;;;;;;;12.00;46.80;;;;;;4978770;28;19916;-67
2022/03/03 00:02:32;;;;;;;;;;;12.00;47.00;;;;;;4978663;28;19910;-67
2022/03/03 00:04:58;;;;;;;;;;;12.00;47.10;;;;;;4978746;28;20209;-68
2022/03/03 00:07:23;;;;;;;;;;;12.00;47.10;;;;;;4978699;28;19902;-67
2022/03/03 00:09:49;;;;;;;;;;;11.90;47.20;;;;;;4977309;28;19902;-67
2022/03/03 00:12:14;;;;;;;;;;;11.90;47.10;;;;;;4977439;28;20443;-67
2022/03/03 00:14:40;;;;;;;;;;;11.90;47.10;;;;;;4978620;28;19932;-67
2022/03/03 00:17:07;;;;;;;;;;;11.90;47.10;;;;;;4978633;28;19917;-67
2022/03/03 00:19:32;;;;;;;;;;;11.90;47.10;;;;;;4978579;28;19920;-67
2022/03/03 00:21:58;;;;;;;;;;;11.90;47.00;;;;;;4978570;28;19903;-67
2022/03/03 00:24:23;;;;;;;;;;;11.90;47.10;;;;;;4978440;28;19909;-67
2022/03/03 00:26:49;;;;;;;;;;;11.90;47.10;;;;;;4978367;28;19909;-67
2022/03/03 00:29:14;;;;;;;;;;;11.90;47.10;;;;;;4978473;28;19971;-67
2022/03/03 00:31:40;;;;;;;;;;;11.90;47.20;;;;;;4978350;28;20433;-67
2022/03/03 00:34:05;;;;;;;;;;;11.90;47.10;;;;;;4978431;28;19921;-67
2022/03/03 00:36:31;;;;;;;;;;;11.90;47.10;;;;;;4977223;28;19910;-67
2022/03/03 00:38:56;;;;;;;;;;;11.80;47.00;;;;;;4978315;28;20009;-67
2022/03/03 00:41:22;;;;;;;;;;;11.80;47.10;;;;;;4978328;28;19949;-67
2022/03/03 00:43:48;;;;;;;;;;;11.80;47.10;;;;;;4978250;28;19925;-67
2022/03/03 00:46:13;;;;;;;;;;;11.80;47.20;;;;;;4978199;28;19944;-67
2022/03/03 00:48:39;;;;;;;;;;;11.80;47.10;;;;;;4978078;28;19910;-67
2022/03/03 00:51:06;;;;;;;;;;;11.80;47.20;;;;;;4978101;28;19914;-67
2022/03/03 00:53:36;;;;;;;;;;;11.80;47.20;;;;;;4978133;28;20371;-67
2022/03/03 00:56:02;;;;;;;;;;;11.80;47.30;;;;;;4978046;28;19910;-67
2022/03/03 00:58:27;;;;;;;;;;;11.70;47.20;;;;;;4978089;28;19947;-67
2022/03/03 01:00:53;;;;;;;;;;;11.80;47.40;;;;;;4981068;28;19902;-67
2022/03/03 01:03:18;;;;;;;;;;;11.80;47.40;;;;;;4981332;28;19977;-67
2022/03/03 01:05:44;;;;;;;;;;;11.80;47.40;;;;;;4981290;28;19902;-67
2022/03/03 01:08:10;;;;;;;;;;;11.70;47.30;;;;;;4981233;28;19918;-67
2022/03/03 01:10:39;;;;;;;;;;;11.70;47.30;;;;;;4981204;28;19953;-67
2022/03/03 01:13:05;;;;;;;;;;;11.70;47.40;;;;;;4981255;28;19925;-67
2022/03/03 01:15:30;;;;;;;;;;;11.70;47.40;;;;;;4981269;28;20232;-67
2022/03/03 01:17:56;;;;;;;;;;;11.70;47.50;;;;;;4981205;28;19934;-67
2022/03/03 01:20:21;;;;;;;;;;;11.70;47.40;;;;;;4981113;28;19910;-67
2022/03/03 01:22:47;;;;;;;;;;;11.60;47.40;;;;;;4981104;28;19960;-67
2022/03/03 01:25:13;;;;;;;;;;;11.70;47.50;;;;;;4981073;28;20086;-67
2022/03/03 01:27:39;;;;;;;;;;;11.70;47.60;;;;;;4981071;28;19902;-67
2022/03/03 01:30:05;;;;;;;;;;;11.70;47.50;;;;;;4980944;28;19906;-67
2022/03/03 01:32:31;;;;;;;;;;;11.70;47.50;;;;;;4980825;28;19914;-68
2022/03/03 01:34:56;;;;;;;;;;;11.60;47.40;;;;;;4980966;28;20059;-67
2022/03/03 01:37:22;;;;;;;;;;;11.60;47.40;;;;;;4980879;28;19945;-67
2022/03/03 01:39:47;;;;;;;;;;;11.60;47.70;;;;;;4980701;28;20088;-67
2022/03/03 01:42:16;;;;;;;;;;;11.60;47.50;;;;;;4979523;28;20213;-67
2022/03/03 01:44:45;;;;;;;;;;;11.60;47.60;;;;;;4980781;28;19951;-67
2022/03/03 01:47:18;;;;;;;;;;;11.60;47.60;;;;;;4980589;28;19951;-67
2022/03/03 01:49:44;;;;;;;;;;;11.60;47.70;;;;;;4980635;28;19951;-67
2022/03/03 01:52:09;;;;;;;;;;;11.60;47.70;;;;;;4980692;28;19902;-67
2022/03/03 01:54:35;;;;;;;;;;;11.60;47.70;;;;;;4980591;28;20052;-67
2022/03/03 01:57:01;;;;;;;;;;;11.60;47.60;;;;;;4980573;28;20114;-67
2022/03/03 01:59:27;;;;;;;;;;;11.60;47.70;;;;;;4980537;28;19936;-67
2022/03/03 02:01:52;;;;;;;;;;;11.50;47.70;;;;;;4980504;28;19917;-67
2022/03/03 02:04:18;;;;;;;;;;;11.60;47.60;;;;;;4980525;28;19902;-67
2022/03/03 02:06:44;;;;;;;;;;;11.60;47.80;;;;;;4980465;28;19937;-67
2022/03/03 02:09:09;;;;;;;;;;;11.60;47.70;;;;;;4980437;28;20293;-67
2022/03/03 02:11:35;;;;;;;;;;;11.60;47.70;;;;;;4979658;28;20401;-67
2022/03/03 02:14:04;;;;;;;;;;;11.60;47.70;;;;;;4980278;28;19910;-67
2022/03/03 02:16:29;;;;;;;;;;;11.50;47.60;;;;;;4980283;28;19902;-66
2022/03/03 02:18:55;;;;;;;;;;;11.50;47.90;;;;;;4980210;28;19955;-67
2022/03/03 02:21:21;;;;;;;;;;;11.50;47.90;;;;;;4980216;28;19910;-67
2022/03/03 02:23:46;;;;;;;;;;;11.50;47.90;;;;;;4980209;28;19937;-67
2022/03/03 02:26:13;;;;;;;;;;;11.50;47.80;;;;;;4978864;28;20548;-67
2022/03/03 02:28:39;;;;;;;;;;;11.50;48.00;;;;;;4980098;28;19934;-67
2022/03/03 02:31:05;;;;;;;;;;;11.50;48.00;;;;;;4979976;28;19977;-66
2022/03/03 02:33:30;;;;;;;;;;;11.50;48.00;;;;;;4979957;28;19917;-67
2022/03/03 02:35:57;;;;;;;;;;;11.50;47.90;;;;;;4979635;28;19910;-67
2022/03/03 02:38:23;;;;;;;;;;;11.50;47.90;;;;;;4978676;28;19992;-67
2022/03/03 02:40:48;;;;;;;;;;;11.40;47.80;;;;;;4979917;28;19929;-67
2022/03/03 02:43:14;;;;;;;;;;;11.40;47.90;;;;;;4979898;28;20194;-66
2022/03/03 02:45:39;;;;;;;;;;;11.40;47.90;;;;;;4979811;28;19909;-67
2022/03/03 02:48:05;;;;;;;;;;;11.40;48.00;;;;;;4978376;28;19918;-67
2022/03/03 02:50:30;;;;;;;;;;;11.40;48.00;;;;;;4979698;28;19968;-67
2022/03/03 02:53:02;;;;;;;;;;;11.40;48.00;;;;;;4979698;28;19910;-67
2022/03/03 02:55:27;;;;;;;;;;;11.40;48.00;;;;;;4979710;28;20005;-68
2022/03/03 02:57:53;;;;;;;;;;;11.40;48.00;;;;;;4979619;28;19902;-67
2022/03/03 03:00:19;;;;;;;;;;;11.40;48.00;;;;;;4979595;28;19902;-67
2022/03/03 03:02:45;;;;;;;;;;;11.40;47.90;;;;;;4979550;28;19992;-67
2022/03/03 03:05:10;;;;;;;;;;;11.40;48.10;;;;;;4979517;28;20263;-67
2022/03/03 03:07:36;;;;;;;;;;;11.40;48.20;;;;;;4979513;28;19985;-67
2022/03/03 03:10:02;;;;;;;;;;;11.30;48.10;;;;;;4979392;28;19910;-66
2022/03/03 03:12:28;;;;;;;;;;;11.30;48.10;;;;;;4979425;28;20303;-68
2022/03/03 03:14:54;;;;;;;;;;;11.30;48.10;;;;;;4979378;28;19969;-67
2022/03/03 03:17:19;;;;;;;;;;;11.30;48.20;;;;;;4979292;28;19933;-67
2022/03/03 03:19:45;;;;;;;;;;;11.30;48.10;;;;;;4979363;28;19910;-67
2022/03/03 03:22:10;;;;;;;;;;;11.30;48.20;;;;;;4978813;28;19917;-67
2022/03/03 03:24:36;;;;;;;;;;;11.30;48.20;;;;;;4978633;28;19932;-67
2022/03/03 03:27:02;;;;;;;;;;;11.30;48.00;;;;;;4979139;28;19910;-67
2022/03/03 03:29:27;;;;;;;;;;;11.30;48.30;;;;;;4979585;28;19910;-68
2022/03/03 03:31:53;;;;;;;;;;;11.30;48.20;;;;;;4979055;28;19937;-68
2022/03/03 03:34:18;;;;;;;;;;;11.20;48.10;;;;;;4979084;28;19945;-67
2022/03/03 03:36:44;;;;;;;;;;;11.30;48.10;;;;;;4979085;28;20139;-67
2022/03/03 03:39:09;;;;;;;;;;;11.20;48.10;;;;;;4979019;28;19913;-67
2022/03/03 03:41:35;;;;;;;;;;;11.20;48.00;;;;;;4979051;28;20138;-67
2022/03/03 03:44:00;;;;;;;;;;;11.20;48.00;;;;;;4978922;28;20413;-68
2022/03/03 03:46:26;;;;;;;;;;;11.20;48.00;;;;;;4978956;28;20214;-67
2022/03/03 03:48:51;;;;;;;;;;;11.20;48.00;;;;;;4978737;28;20004;-67
2022/03/03 03:51:17;;;;;;;;;;;11.20;48.20;;;;;;4978799;28;19964;-68
2022/03/03 03:53:42;;;;;;;;;;;11.20;48.30;;;;;;4977624;28;19903;-67
2022/03/03 03:56:08;;;;;;;;;;;11.20;48.30;;;;;;4978813;28;19962;-67
2022/03/03 03:58:34;;;;;;;;;;;11.20;48.20;;;;;;4978985;28;19938;-67
2022/03/03 04:00:59;;;;;;;;;;;11.20;48.20;;;;;;4978723;28;20233;-67
2022/03/03 04:03:25;;;;;;;;;;;11.20;48.20;;;;;;4978684;28;20241;-67
2022/03/03 04:05:51;;;;;;;;;;;11.20;48.20;;;;;;4978639;28;20279;-67
2022/03/03 04:08:18;;;;;;;;;;;11.20;48.30;;;;;;4978630;28;20138;-67
2022/03/03 04:10:44;;;;;;;;;;;11.20;48.40;;;;;;4978586;28;19912;-67
2022/03/03 04:13:10;;;;;;;;;;;11.10;48.20;;;;;;4978598;28;20083;-68
2022/03/03 04:15:35;;;;;;;;;;;11.10;48.10;;;;;;4978582;28;19910;-67
2022/03/03 04:18:01;;;;;;;;;;;11.10;48.30;;;;;;4978509;28;20164;-67
2022/03/03 04:20:27;;;;;;;;;;;11.10;48.20;;;;;;4978474;28;20431;-67
2022/03/03 04:22:53;;;;;;;;;;;11.10;48.30;;;;;;4978512;28;20236;-67
2022/03/03 04:25:19;;;;;;;;;;;11.10;48.30;;;;;;4978470;28;19902;-67
2022/03/03 04:27:45;;;;;;;;;;;11.10;48.30;;;;;;4978438;28;19908;-67
2022/03/03 04:30:10;;;;;;;;;;;11.10;48.20;;;;;;4978353;28;19914;-68
2022/03/03 04:32:39;;;;;;;;;;;11.10;48.30;;;;;;4978321;28;19910;-67
2022/03/03 04:35:05;;;;;;;;;;;11.10;48.20;;;;;;4980285;28;19902;-67
2022/03/03 04:37:31;;;;;;;;;;;11.10;48.30;;;;;;4981680;28;19910;-67
2022/03/03 04:39:56;;;;;;;;;;;11.00;48.30;;;;;;4981738;28;20143;-67
2022/03/03 04:42:22;;;;;;;;;;;11.00;48.20;;;;;;4981676;28;19910;-67
2022/03/03 04:44:48;;;;;;;;;;;11.00;48.30;;;;;;4981563;28;20193;-67
2022/03/03 04:47:14;;;;;;;;;;;11.00;48.40;;;;;;4981405;28;19902;-67
2022/03/03 04:49:39;;;;;;;;;;;11.00;48.20;;;;;;4981606;28;19908;-67
2022/03/03 04:52:06;;;;;;;;;;;11.00;48.30;;;;;;4981504;28;19950;-67
2022/03/03 04:54:31;;;;;;;;;;;10.90;48.20;;;;;;4981505;28;19910;-67
2022/03/03 04:56:57;;;;;;;;;;;10.90;48.30;;;;;;4981485;28;19972;-67
2022/03/03 04:59:25;;;;;;;;;;;11.00;48.50;;;;;;4981493;28;20288;-67
2022/03/03 05:01:52;;;;;;;;;;;11.00;48.30;;;;;;4981382;28;20451;-67
2022/03/03 05:04:18;;;;;;;;;;;11.00;48.20;;;;;;4981356;28;19910;-68
2022/03/03 05:06:44;;;;;;;;;;;11.00;48.40;;;;;;4981360;28;19902;-67
2022/03/03 05:09:10;;;;;;;;;;;11.00;48.40;;;;;;4981354;28;19968;-67
2022/03/03 05:11:35;;;;;;;;;;;10.90;48.30;;;;;;4981226;28;19914;-67
2022/03/03 05:14:01;;;;;;;;;;;10.90;48.30;;;;;;4981225;28;19910;-68
2022/03/03 05:16:26;;;;;;;;;;;10.90;48.30;;;;;;4981203;28;20226;-67
2022/03/03 05:18:52;;;;;;;;;;;10.90;48.50;;;;;;4981139;28;20117;-68
2022/03/03 05:21:17;;;;;;;;;;;10.90;48.40;;;;;;4981148;28;20080;-67
2022/03/03 05:23:43;;;;;;;;;;;10.90;48.40;;;;;;4981050;28;19902;-67
2022/03/03 05:26:08;;;;;;;;;;;10.90;48.30;;;;;;4981060;28;19902;-67
2022/03/03 05:28:34;;;;;;;;;;;10.90;48.40;;;;;;4981018;28;19937;-67
2022/03/03 05:31:00;;;;;;;;;;;10.90;48.40;;;;;;4980895;28;19914;-67
2022/03/03 05:33:26;;;;;;;;;;;10.90;48.20;;;;;;4980995;28;19933;-67
2022/03/03 05:35:54;;;;;;;;;;;10.90;48.40;;;;;;4980910;28;19989;-68
2022/03/03 05:38:20;;;;;;;;;;;10.90;48.30;;;;;;4980821;28;19945;-68
2022/03/03 05:40:45;;;;;;;;;;;10.90;48.30;;;;;;4980858;28;20405;-67
2022/03/03 05:43:12;;;;;;;;;;;10.90;48.20;;;;;;4980821;28;19910;-67
2022/03/03 05:45:38;;;;;;;;;;;10.90;48.40;;;;;;4979896;28;19945;-67
2022/03/03 05:48:04;;;;;;;;;;;10.90;48.40;;;;;;4980458;28;19910;-67
2022/03/03 05:50:30;;;;;;;;;;;10.80;48.30;;;;;;4980611;28;19910;-67
2022/03/03 05:52:59;;;;;;;;;;;10.80;48.40;;;;;;4980562;28;19932;-67
2022/03/03 05:55:25;;;;;;;;;;;10.80;48.30;;;;;;4980572;28;20154;-67
2022/03/03 05:57:53;;;;;;;;;;;10.90;48.30;;;;;;4980576;28;19910;-67
2022/03/03 06:00:18;;;;;;;;;;;10.90;48.40;;;;;;4980527;28;19909;-67
2022/03/03 06:02:48;;;;;;;;;;;10.90;48.40;;;;;;4980528;28;20105;-68
2022/03/03 06:05:15;;;;;;;;;;;10.80;48.30;;;;;;4980697;28;19902;-67
2022/03/03 06:07:42;;;;;;;;;;;10.80;48.20;;;;;;4980423;28;19910;-66
2022/03/03 06:10:08;;;;;;;;;;;10.80;48.20;;;;;;4980326;28;19910;-67
2022/03/03 06:12:38;;;;;;;;;;;10.90;48.40;;;;;;4980744;28;19909;-67
2022/03/03 06:15:04;;;;;;;;;;;10.90;48.30;;;;;;4980591;28;19902;-67
2022/03/03 06:17:31;;;;;;;;;;;10.80;48.10;;;;;;4980287;28;20312;-67
2022/03/03 06:19:58;;;;;;;;;;;10.80;48.30;;;;;;4980252;28;19916;-67
2022/03/03 06:22:24;;;;;;;;;;;10.80;48.20;;;;;;4980214;28;19902;-67
2022/03/03 06:24:49;;;;;;;;;;;10.80;48.10;;;;;;4980145;28;19944;-67
2022/03/03 06:27:15;;;;;;;;;;;10.80;48.30;;;;;;4980126;28;19917;-67
2022/03/03 06:29:41;;;;;;;;;;;10.80;48.30;;;;;;4980068;28;19910;-68
2022/03/03 06:32:07;;;;;;;;;;;10.80;48.40;;;;;;4980005;28;20107;-67
2022/03/03 06:34:32;;;;;;;;;;;10.90;48.20;;;;;;4980064;28;19933;-67
2022/03/03 06:36:58;;;;;;;;;;;10.80;48.10;;;;;;4979990;28;19902;-67
2022/03/03 06:39:24;;;;;;;;;;;10.90;48.10;;;;;;4979957;28;19902;-68
2022/03/03 06:41:50;;;;;;;;;;;10.80;48.20;;;;;;4979917;28;19955;-67
2022/03/03 06:44:15;;;;;;;;;;;10.80;48.20;;;;;;4979910;28;20299;-67
2022/03/03 06:46:42;;;;;;;;;;;10.90;48.30;;;;;;4979802;28;19910;-67
2022/03/03 06:49:07;;;;;;;;;;;10.90;48.10;;;;;;4979687;28;19964;-68
2022/03/03 06:51:43;;;;;;;;;;;10.90;48.00;;;;;;4979739;28;19934;-67
2022/03/03 06:54:16;;;;;;;;;;;10.90;48.20;;;;;;4979754;28;19939;-67
2022/03/03 06:56:46;;;;;;;;;;;10.90;47.90;;;;;;4979511;28;19910;-68
2022/03/03 06:59:14;;;;;;;;;;;10.90;48.20;;;;;;4979682;28;20271;-67
2022/03/03 07:01:40;;;;;;;;;;;10.90;48.00;;;;;;4979640;28;20075;-67
2022/03/03 07:04:07;;;;;;;;;;;10.90;47.90;;;;;;4979565;28;19917;-67
2022/03/03 07:06:33;;;;;;;;;;;10.90;48.10;;;;;;4979556;28;19955;-68
2022/03/03 07:08:59;;;;;;;;;;;11.00;48.10;;;;;;4979739;28;19902;-67
2022/03/03 07:11:25;;;;;;;;;;;11.00;48.00;;;;;;4979458;28;20219;-67
2022/03/03 07:13:50;;;;;;;;;;;11.00;48.20;;;;;;4979637;28;19910;-68
2022/03/03 07:16:34;;;;;;;;;;;11.10;47.90;;;;;;4979432;28;19910;-68
2022/03/03 07:19:02;;;;;;;;;;;11.10;48.00;;;;;;4979625;28;19902;-67
2022/03/03 07:21:27;;;;;;;;;;;11.10;47.80;;;;;;4979346;28;19989;-67
2022/03/03 07:23:58;;;;;;;;;;;11.20;47.80;;;;;;4979274;28;19902;-67
2022/03/03 07:26:25;;;;;;;;;;;11.20;47.70;;;;;;4979280;28;19902;-67
2022/03/03 07:28:52;;;;;;;;;;;11.30;47.50;;;;;;4979202;28;19910;-67
2022/03/03 07:31:22;;;;;;;;;;;11.60;47.00;;;;;;4979156;28;19914;-67
2022/03/03 07:33:54;;;;;;;;;;;11.80;47.00;;;;;;4979149;28;19917;-67
2022/03/03 07:36:32;;;;;;;;;;;12.00;46.10;;;;;;4979337;28;19909;-67
2022/03/03 07:38:59;;;;;;;;;;;12.10;46.20;;;;;;4979119;28;19944;-67
2022/03/03 07:41:26;;;;;;;;;;;12.30;46.20;;;;;;4979038;28;20405;-67
2022/03/03 07:43:55;;;;;;;;;;;12.50;45.70;;;;;;4979047;28;20169;-67
2022/03/03 07:46:25;;;;;;;;;;;12.80;44.90;;;;;;4978973;28;20359;-67
2022/03/03 07:48:56;;;;;;;;;;;13.00;44.30;;;;;;4978817;28;20206;-67
2022/03/03 07:51:22;;;;;;;;;;;13.70;43.30;;;;;;4978863;28;19960;-67
2022/03/03 07:53:48;;;;;;;;;;;14.40;41.80;;;;;;4978872;28;19977;-68
2022/03/03 07:56:42;;;;;;;;;;;14.90;40.50;;;;;;4979059;28;19987;-67
2022/03/03 07:59:12;;;;;;;;;;;15.40;39.80;;;;;;4991796;28;19906;-68
2022/03/03 08:01:37;;;;;;;;;;;15.70;38.70;;;;;;4978740;28;20218;-68
2022/03/03 08:04:03;;;;;;;;;;;16.00;38.60;;;;;;4978757;28;19909;-68
2022/03/03 08:06:30;;;;;;;;;;;16.20;38.30;;;;;;4978695;28;20193;-68
2022/03/03 08:08:58;;;;;;;;;;;16.30;37.90;;;;;;4978025;28;19979;-68
2022/03/03 08:11:24;;;;;;;;;;;16.30;37.60;;;;;;4978643;28;19937;-68
2022/03/03 08:13:52;;;;;;;;;;;16.40;37.90;;;;;;4978621;28;19913;-68
2022/03/03 08:16:18;;;;;;;;;;;16.30;37.60;;;;;;4978639;28;19917;-68
2022/03/03 08:18:46;;;;;;;;;;;15.90;38.00;;;;;;4978539;28;20121;-67
2022/03/03 08:21:13;;;;;;;;;;;15.40;38.40;;;;;;4978562;28;19911;-68
2022/03/03 08:23:39;;;;;;;;;;;14.80;39.30;;;;;;4978547;28;19965;-68
2022/03/03 08:26:05;;;;;;;;;;;14.50;40.70;;;;;;4978553;28;19948;-68
2022/03/03 08:28:32;;;;;;;;;;;14.30;41.80;;;;;;4978499;28;19973;-68
2022/03/03 08:30:57;;;;;;;;;;;14.10;42.30;;;;;;4978372;28;19913;-68
2022/03/03 08:33:46;;;;;;;;;;;13.90;43.00;;;;;;4978415;28;19909;-68
2022/03/03 08:36:17;;;;;;;;;;;13.70;43.50;;;;;;4978228;28;19910;-67
2022/03/03 08:38:47;;;;;;;;;;;13.50;43.80;;;;;;4978367;28;19952;-67
2022/03/03 08:41:13;;;;;;;;;;;13.40;44.30;;;;;;4978375;28;19910;-68
2022/03/03 08:43:40;;;;;;;;;;;13.30;44.70;;;;;;4978303;28;19902;-68
2022/03/03 08:46:07;;;;;;;;;;;13.10;45.10;;;;;;4978325;28;19910;-68
2022/03/03 08:48:33;;;;;;;;;;;13.00;45.50;;;;;;4978108;28;19922;-67
2022/03/03 08:50:59;;;;;;;;;;;12.90;45.70;;;;;;4978123;28;20354;-68
2022/03/03 08:53:25;;;;;;;;;;;12.80;46.10;;;;;;4978224;28;19940;-68
2022/03/03 08:55:51;;;;;;;;;;;12.70;46.30;;;;;;4978216;28;19910;-68
2022/03/03 08:58:16;;;;;;;;;;;12.60;46.50;;;;;;4978153;28;20198;-67
2022/03/03 09:00:43;;;;;;;;;;;12.60;46.80;;;;;;4978116;28;19938;-67
2022/03/03 09:03:08;;;;;;;;;;;12.50;47.00;;;;;;4978084;28;19918;-68
2022/03/03 09:05:34;;;;;;;;;;;12.60;47.00;;;;;;4978083;28;20125;-67
2022/03/03 09:07:59;;;;;;;;;;;12.60;47.00;;;;;;4978008;28;19902;-67
2022/03/03 09:10:25;;;;;;;;;;;12.60;47.00;;;;;;4977922;28;19952;-68
2022/03/03 09:12:51;;;;;;;;;;;12.50;47.00;;;;;;4978001;28;20152;-67
2022/03/03 09:15:16;;;;;;;;;;;12.60;47.00;;;;;;4976732;28;19917;-67
2022/03/03 09:17:42;;;;;;;;;;;12.60;47.20;;;;;;4977906;28;19910;-67
2022/03/03 09:20:11;;;;;;;;;;;12.60;47.20;;;;;;4977909;28;19944;-68
2022/03/03 09:22:37;;;;;;;;;;;12.60;47.20;;;;;;4980489;28;20397;-67
2022/03/03 09:25:03;;;;;;;;;;;12.60;47.00;;;;;;4981163;28;19917;-67
2022/03/03 09:27:29;;;;;;;;;;;12.60;47.10;;;;;;4981060;28;19948;-68
2022/03/03 09:29:54;;;;;;;;;;;12.60;47.20;;;;;;4981046;28;19906;-68
2022/03/03 09:32:20;;;;;;;;;;;12.60;47.20;;;;;;4980971;28;19914;-68
2022/03/03 09:34:45;;;;;;;;;;;12.70;47.10;;;;;;4980981;28;19910;-68
2022/03/03 09:37:11;;;;;;;;;;;12.70;47.00;;;;;;4980940;28;19964;-68
2022/03/03 09:39:37;;;;;;;;;;;12.70;47.10;;;;;;4980883;28;20198;-67
2022/03/03 09:42:03;;;;;;;;;;;12.70;47.20;;;;;;4980905;28;19916;-67
2022/03/03 09:44:28;;;;;;;;;;;12.70;47.20;;;;;;4980799;28;19992;-67
2022/03/03 09:46:55;;;;;;;;;;;12.80;47.30;;;;;;4980809;28;19908;-68
2022/03/03 09:49:21;;;;;;;;;;;12.80;47.10;;;;;;4980606;28;20048;-67
2022/03/03 09:51:50;;;;;;;;;;;12.80;46.90;;;;;;4980666;28;19913;-67
2022/03/03 09:54:16;;;;;;;;;;;12.80;47.10;;;;;;4980714;28;19910;-67
2022/03/03 09:56:41;;;;;;;;;;;12.80;47.10;;;;;;4980623;28;19918;-67
2022/03/03 09:59:07;;;;;;;;;;;12.80;47.10;;;;;;4980614;28;19921;-67
2022/03/03 10:01:33;;;;;;;;;;;12.80;47.10;;;;;;4980549;28;20106;-67
2022/03/03 10:04:17;;;;;;;;;;;12.80;47.10;;;;;;4980551;28;19902;-67
2022/03/03 10:06:43;;;;;;;;;;;12.80;47.20;;;;;;4980493;28;19939;-68
2022/03/03 10:09:09;;;;;;;;;;;12.70;47.50;;;;;;4980498;28;19902;-68
2022/03/03 10:11:38;;;;;;;;;;;12.80;47.40;;;;;;4980426;28;19906;-67
2022/03/03 10:14:04;;;;;;;;;;;12.80;47.60;;;;;;4980400;28;19909;-68
2022/03/03 10:16:31;;;;;;;;;;;12.80;47.70;;;;;;4980375;28;19902;-67
2022/03/03 10:18:59;;;;;;;;;;;12.70;47.80;;;;;;4980328;28;19944;-68
2022/03/03 10:21:26;;;;;;;;;;;12.70;47.90;;;;;;4980326;28;19902;-67
2022/03/03 10:23:51;;;;;;;;;;;12.70;47.90;;;;;;4980235;28;20240;-67
2022/03/03 10:26:17;;;;;;;;;;;12.70;47.80;;;;;;4980201;28;19910;-67
2022/03/03 10:28:47;;;;;;;;;;;12.70;48.00;;;;;;4980210;28;19910;-67
2022/03/03 10:31:13;;;;;;;;;;;12.70;48.00;;;;;;4980081;28;20129;-68
2022/03/03 10:36:26;;;;;;;23.52;10.20;;;12.60;45.50;;;;;;5114823;27;1363155;-67
2022/03/03 10:39:02;;;;;;;16.02;10.13;;;12.50;48.10;;;;;;5138488;27;20107;-68
2022/03/03 10:41:37;;;;;;;16.95;10.73;;;12.40;48.70;;;;;;5138412;27;20047;-66
2022/03/03 10:44:13;;;;;;;18.70;11.20;;;12.30;49.00;;;;;;5138371;28;20342;-67
2022/03/03 10:46:59;;;;;;;17.27;10.52;;;12.20;49.30;;;;;;5137068;28;20065;-66
2022/03/03 10:49:25;;;;;;;15.80;9.07;;;12.20;49.40;;;;;;5138336;27;20019;-67
2022/03/03 10:51:51;;;;;;;14.68;9.57;;;12.10;49.60;;;;;;5138229;27;20023;-67
2022/03/03 10:54:17;;;;;;;19.77;10.75;;;12.10;49.60;;;;;;5138083;28;20034;-67
2022/03/03 10:56:45;;;;;;;19.27;10.05;;;12.10;49.60;;;;;;5138129;27;20023;-67
2022/03/03 10:59:17;;;;;;;14.57;9.20;;;12.10;49.70;;;;;;5138150;27;20227;-67
2022/03/03 11:01:44;;;;;;;18.40;10.23;;;12.10;49.70;;;;;;5138311;27;20252;-67
2022/03/03 11:04:19;;;;;;;19.58;10.65;;;12.10;49.80;;;;;;5137974;27;20011;-68
2022/03/03 11:06:48;;;;;;;17.10;9.73;;;12.10;49.80;;;;;;5137963;27;20012;-67
2022/03/03 11:09:14;;;;;;;;;;;12.10;49.80;;;;;;5138628;27;20016;-67
2022/03/03 11:11:40;;;;;;;18.42;10.02;;;12.10;49.80;;;;;;5137894;27;19980;-68
2022/03/03 11:14:06;;;;;;;15.55;9.68;;;12.10;49.80;;;;;;5137687;28;20039;-67
2022/03/03 11:16:32;;;;;;;16.17;10.15;;;12.10;49.80;;;;;;5137755;27;20023;-68
2022/03/03 11:18:59;;;;;;;15.68;9.07;;;12.00;49.80;;;;;;5137948;27;20103;-67
2022/03/03 11:21:25;;;;;;;12.40;8.35;;;12.10;49.80;;;;;;5137664;27;20049;-68
2022/03/03 11:23:56;;;;;;;13.90;8.80;;;12.10;49.80;;;;;;5137554;28;20275;-67
2022/03/03 11:26:33;;;;;;;15.10;9.55;;;12.10;49.70;;;;;;5137834;27;20323;-67
2022/03/03 11:29:18;;;;;;;13.57;9.18;;;12.10;49.80;;;;;;5137461;27;20020;-67
2022/03/03 11:31:58;;;;;;;14.32;9.43;;;12.10;49.90;;;;;;5137496;27;20023;-67
2022/03/03 11:34:39;;;;;;;16.33;9.38;;;12.10;49.80;;;;;;5137262;27;20030;-67
2022/03/03 11:37:24;;;;;;;14.75;9.95;;;12.10;49.90;;;;;;5137352;27;20035;-68
2022/03/03 11:40:03;;;;;;;13.65;9.18;;;12.10;49.80;;;;;;5137361;27;20031;-67
2022/03/03 11:42:35;;;;;;;14.80;9.20;;;12.20;49.90;;;;;;5137203;27;20046;-66
2022/03/03 11:45:13;;;;;;;16.17;9.65;;;12.10;49.90;;;;;;5137179;27;20246;-67
2022/03/03 11:47:46;;;;;;;18.55;10.13;;;12.10;49.90;;;;;;5124335;28;20250;-67
2022/03/03 11:50:18;;;;;;;15.77;9.25;;;12.20;50.00;;;;;;5123478;27;20019;-68
2022/03/03 11:52:51;;;;;;;14.57;9.32;;;12.20;49.90;;;;;;5123357;28;20034;-66
2022/03/03 11:55:41;;;;;;;15.10;9.80;;;12.20;49.90;;;;;;5123337;28;20035;-68
2022/03/03 11:58:12;;;;;;;14.65;9.15;;;12.20;49.80;;;;;;5123250;27;20027;-67
2022/03/03 12:00:47;;;;;;;15.68;9.38;;;12.20;49.70;;;;;;5123221;28;20061;-66
2022/03/03 12:03:17;;;;;;;15.25;8.93;;;12.20;49.80;;;;;;5123230;28;20091;-67
2022/03/03 12:05:45;;;;;;;15.38;10.05;;;12.20;49.70;;;;;;5123075;28;20045;-66
2022/03/03 12:08:13;;;;;;;15.40;9.93;;;12.20;49.60;;;;;;5123037;28;20331;-67
2022/03/03 12:11:02;;;;;;;12.68;8.75;;;12.20;49.70;;;;;;5123050;28;20031;-66
2022/03/03 12:13:28;;;;;;;20.25;10.07;;;12.20;49.80;;;;;;5123013;28;20031;-64
2022/03/03 12:16:26;;;;;;;15.27;9.35;;;12.20;49.70;;;;;;5123077;28;20065;-67
2022/03/03 12:18:55;;;;;;;14.73;9.15;;;12.20;49.70;;;;;;5122148;28;20102;-67
2022/03/03 12:21:25;;;;;;;15.73;9.50;;;12.20;49.60;;;;;;5122788;28;20027;-66
2022/03/03 12:24:11;;;;;;;15.65;9.70;;;12.20;49.70;;;;;;5122804;28;20122;-67
2022/03/03 12:26:55;;;;;;;14.95;8.75;;;12.20;49.80;;;;;;5122655;28;20015;-67
2022/03/03 12:29:48;;;;;;;15.10;9.32;;;12.20;49.80;;;;;;5122895;28;20426;-66
2022/03/03 12:32:26;;;;;;;13.82;8.82;;;12.20;49.90;;;;;;5112488;28;20030;-67
2022/03/03 12:34:57;;;;;;;14.10;8.93;;;12.20;49.80;;;;;;5122417;28;20032;-67
2022/03/03 12:37:23;;;;;;;13.35;8.57;;;12.30;49.90;;;;;;5122567;28;20024;-67
2022/03/03 12:39:53;;;;;;;16.67;9.88;;;12.30;49.90;;;;;;5122507;28;20038;-66
2022/03/03 12:42:21;;;;;;;15.57;9.20;;;12.30;49.90;;;;;;5122455;28;20015;-67
2022/03/03 12:44:54;;;;;;;12.98;8.63;;;12.30;49.90;;;;;;5122378;28;20051;-66
2022/03/03 12:47:38;;;;;;;15.57;9.18;;;12.30;49.90;;;;;;5122390;28;20027;-67
2022/03/03 12:50:06;;;;;;;15.07;9.27;;;12.30;49.80;;;;;;5122281;28;20064;-68
2022/03/03 12:52:33;;;;;;;13.93;9.50;;;12.30;50.00;;;;;;5122216;28;20024;-68
2022/03/03 12:54:59;;;;;;;14.25;9.15;;;12.30;50.00;;;;;;5122115;28;20024;-67
2022/03/03 12:57:33;;;;;;;14.95;8.90;;;12.30;49.90;;;;;;5121735;28;20238;-68
2022/03/03 13:00:10;;;;;;;16.25;9.00;;;12.40;49.90;;;;;;5121977;28;20020;-68
2022/03/03 13:02:58;;;;;;;15.68;9.38;;;12.40;49.80;;;;;;5122054;28;20571;-69
2022/03/03 13:05:43;;;;;;;12.68;8.50;;;12.40;49.90;;;;;;5122009;28;20024;-67
2022/03/03 13:08:22;;;;;;;14.75;8.27;;;12.30;49.90;;;;;;5121947;28;20090;-65
2022/03/03 13:10:49;;;;;;;13.55;8.80;;;12.40;49.90;;;;;;5122080;28;20027;-68
2022/03/03 13:13:16;;;;;;;15.15;9.40;;;12.40;49.90;;;;;;5121858;28;20312;-68
2022/03/03 13:15:43;;;;;;;13.70;8.43;;;12.40;50.00;;;;;;5121666;28;20096;-66
2022/03/03 13:18:16;;;;;;;13.73;8.65;;;12.40;50.00;;;;;;5121735;28;20327;-67
2022/03/03 13:20:55;;;;;;;14.57;9.15;;;12.40;49.90;;;;;;5121727;27;20103;-67
2022/03/03 13:23:21;;;;;;;12.63;8.55;;;12.40;50.00;;;;;;5121659;28;20083;-66
2022/03/03 13:26:15;;;;;;;11.77;7.63;;;12.40;50.00;;;;;;5121590;28;20031;-67
2022/03/03 13:29:00;;;;;;;11.60;7.53;;;12.40;49.90;;;;;;5121490;28;20047;-67
2022/03/03 13:31:28;;;;;;;13.57;7.57;;;12.40;50.30;;;;;;5121514;27;20136;-68
2022/03/03 13:33:59;;;;;;;13.80;8.20;;;12.40;50.00;;;;;;5121410;28;20252;-67
2022/03/03 13:36:27;;;;;;;12.85;8.23;;;12.40;50.20;;;;;;5121145;28;20040;-67
2022/03/03 13:38:57;;;;;;;15.45;8.48;;;12.40;50.10;;;;;;5121604;28;20053;-68
2022/03/03 13:41:34;;;;;;;13.70;8.23;;;12.40;50.10;;;;;;5119992;28;20111;-67
2022/03/03 13:44:12;;;;;;;13.45;8.18;;;12.40;50.20;;;;;;5121265;28;20020;-67
2022/03/03 13:46:43;;;;;;;14.00;8.07;;;12.40;50.20;;;;;;5121400;28;20020;-66
2022/03/03 13:49:20;;;;;;;13.85;8.18;;;12.40;50.70;;;;;;5121198;28;20037;-66
2022/03/03 13:52:19;;;;;;;12.50;8.55;;;12.40;50.10;;;;;;5121149;28;20273;-67
2022/03/03 13:54:49;;;;;;;;;;;12.40;50.10;;;;;;5121511;28;20016;-67
2022/03/03 13:57:45;;;;;;;13.80;7.53;;;12.40;50.00;;;;;;5121141;28;19900;-67
2022/03/03 14:00:20;;;;;;;15.20;8.32;;;12.40;50.00;;;;;;5121338;28;20019;-66